Time;durP1;ratioP1;P1;durP2;ratioP2;P2;SDS_P1;SDS_P2;PMS_P1;PMS_P2;Temp;Humidity;BMP_temperature;BMP_pressure;BME280_temperature;BME280_humidity;BME280_pressure;Samples;Min_cycle;Max_cycle;Signal;HPM_P1;HPM_P2
2021/01/06 00:00:41;;;;;;;7.32;4.45;;;;;;;22.48;44.42;94906.47;5031905;28;20036;-75
2021/01/06 00:03:08;;;;;;;5.75;4.18;;;;;;;22.46;44.21;94914.41;5032101;28;20029;-76
2021/01/06 00:05:35;;;;;;;6.30;4.18;;;;;;;22.45;44.37;94923.78;5030973;28;20037;-76
2021/01/06 00:08:00;;;;;;;5.72;4.25;;;;;;;22.43;44.13;94920.84;5032061;28;20055;-76
2021/01/06 00:10:28;;;;;;;7.00;4.22;;;;;;;22.24;43.95;94892.03;5016926;28;20116;-76
2021/01/06 00:12:53;;;;;;;6.88;4.47;;;;;;;22.41;44.28;94912.47;5013418;28;20407;-75
2021/01/06 00:15:24;;;;;;;6.38;4.38;;;;;;;22.26;44.71;94873.97;5011325;28;20081;-76
2021/01/06 00:17:49;;;;;;;6.70;4.85;;;;;;;22.30;44.37;94879.91;5012418;28;20084;-75
2021/01/06 00:20:15;;;;;;;7.53;4.88;;;;;;;22.38;44.40;94897.16;5013788;28;20025;-76
2021/01/06 00:22:41;;;;;;;6.75;4.50;;;;;;;22.36;44.46;94905.09;5013122;28;20490;-75
2021/01/06 00:25:07;;;;;;;5.60;3.95;;;;;;;22.33;44.44;94938.75;5013664;28;20050;-76
2021/01/06 00:27:32;;;;;;;6.13;4.22;;;;;;;22.33;44.49;94933.31;5013449;28;20032;-76
2021/01/06 00:29:58;;;;;;;6.97;4.72;;;;;;;22.31;44.57;94935.75;5012134;28;20017;-75
2021/01/06 00:32:23;;;;;;;7.32;4.53;;;;;;;22.29;44.65;94927.38;5012173;28;20029;-75
2021/01/06 00:34:49;;;;;;;5.93;4.32;;;;;;;22.29;44.57;94921.94;5010504;28;20588;-76
2021/01/06 00:37:14;;;;;;;6.75;4.60;;;;;;;22.28;44.22;94939.50;5011892;28;20026;-75
2021/01/06 00:39:40;;;;;;;6.22;4.60;;;;;;;22.25;44.67;94962.25;5011661;28;20075;-75
2021/01/06 00:42:05;;;;;;;7.63;4.60;;;;;;;22.28;44.51;94952.38;5011931;28;20029;-76
2021/01/06 00:44:31;;;;;;;6.18;4.60;;;;;;;22.26;44.55;94931.09;5011863;28;20407;-76
2021/01/06 00:46:57;;;;;;;5.93;4.05;;;;;;;22.14;44.38;94932.38;5011778;28;20022;-76
2021/01/06 00:49:22;;;;;;;6.95;4.78;;;;;;;22.21;44.57;94942.75;5011736;28;20037;-76
2021/01/06 00:51:49;;;;;;;8.50;4.82;;;;;;;22.21;44.49;94953.66;5011569;28;20515;-75
2021/01/06 00:54:15;;;;;;;6.90;4.72;;;;;;;22.20;44.51;94949.41;5012004;28;20083;-76
2021/01/06 00:56:41;;;;;;;7.00;5.00;;;;;;;22.07;44.67;94930.19;5011762;28;20407;-75
2021/01/06 00:59:06;;;;;;;6.63;4.40;;;;;;;22.17;44.51;94964.00;5010580;28;20030;-76
2021/01/06 01:01:32;;;;;;;7.05;4.72;;;;;;;22.17;44.55;94968.72;5011607;28;20638;-76
2021/01/06 01:03:57;;;;;;;9.02;4.80;;;;;;;22.08;44.38;94961.59;5010517;28;20480;-75
2021/01/06 01:06:24;;;;;;;6.80;4.28;;;;;;;22.10;44.69;94958.34;5011328;28;20022;-75
2021/01/06 01:08:50;;;;;;;7.70;4.70;;;;;;;22.14;44.55;94959.56;5010170;28;20810;-75
2021/01/06 01:11:16;;;;;;;6.85;4.72;;;;;;;22.13;44.56;94958.09;5011884;28;20132;-75
2021/01/06 01:13:41;;;;;;;6.95;4.75;;;;;;;22.07;44.45;94954.66;5026401;28;20032;-75
2021/01/06 01:16:07;;;;;;;6.50;4.70;;;;;;;22.12;44.55;94961.31;5043112;28;20523;-75
2021/01/06 01:18:32;;;;;;;6.65;4.80;;;;;;;22.10;44.56;94969.97;5010670;28;20121;-75
2021/01/06 01:20:58;;;;;;;6.93;4.53;;;;;;;22.08;44.63;94953.41;5010771;28;20034;-75
2021/01/06 01:23:25;;;;;;;7.35;4.93;;;;;;;22.05;44.50;94946.28;5026249;28;20033;-75
2021/01/06 01:25:50;;;;;;;8.02;5.22;;;;;;;22.08;44.35;94961.59;5011356;28;20133;-75
2021/01/06 01:28:17;;;;;;;6.78;4.80;;;;;;;22.08;44.50;94945.25;5011530;28;20530;-75
2021/01/06 01:30:43;;;;;;;7.03;4.68;;;;;;;22.07;44.55;94954.66;5019231;28;20017;-74
2021/01/06 01:33:08;;;;;;;7.25;4.32;;;;;;;22.06;44.37;94957.88;5031020;28;20036;-74
2021/01/06 01:35:33;;;;;;;6.80;4.45;;;;;;;21.87;44.55;94924.38;5013243;28;20030;-75
2021/01/06 01:38:00;;;;;;;6.82;4.35;;;;;;;22.04;44.63;94955.66;5013375;28;20118;-76
2021/01/06 01:40:30;;;;;;;7.22;4.50;;;;;;;21.86;44.78;94922.16;5030750;28;20446;-76
2021/01/06 01:43:05;;;;;;;7.55;4.72;;;;;;;22.01;44.58;94940.34;5029656;28;20052;-76
2021/01/06 01:45:46;;;;;;;6.40;4.85;;;;;;;22.02;44.43;94958.16;5029547;28;20038;-75
2021/01/06 01:48:28;;;;;;;7.40;4.50;;;;;;;21.82;44.87;94916.22;5030658;28;20030;-76
2021/01/06 01:50:55;;;;;;;7.30;4.70;;;;;;;21.96;44.75;94941.13;5029572;28;20144;-75
2021/01/06 01:53:30;;;;;;;6.10;4.40;;;;;;;21.97;44.41;94950.75;5029706;28;20025;-76
2021/01/06 01:55:56;;;;;;;6.85;4.70;;;;;;;21.87;44.59;94915.44;5013339;28;20025;-75
2021/01/06 01:58:22;;;;;;;6.45;4.35;;;;;;;21.79;44.44;94928.09;5028678;28;20501;-76
2021/01/06 02:00:47;;;;;;;8.50;4.70;;;;;;;21.95;44.47;94939.63;5013265;28;20053;-75
2021/01/06 02:03:33;;;;;;;7.00;4.55;;;;;;;21.95;44.51;94915.16;5031142;28;20583;-74
2021/01/06 02:06:13;;;;;;;7.28;4.60;;;;;;;21.89;44.50;94921.16;5032223;28;20040;-75
2021/01/06 02:08:45;;;;;;;7.28;4.80;;;;;;;21.84;44.50;94902.84;5033280;28;20091;-74
2021/01/06 02:11:15;;;;;;;7.50;4.70;;;;;;;21.95;44.54;94930.75;5033678;28;20040;-75
2021/01/06 02:13:41;;;;;;;;;;;;;;;21.95;44.64;94936.91;5013769;28;20029;-76
2021/01/06 02:16:17;;;;;;;7.47;4.60;;;;;;;21.76;44.46;94912.78;5029356;28;19967;-75
2021/01/06 02:18:43;;;;;;;6.53;4.13;;;;;;;21.92;44.47;94932.47;5029493;28;20022;-76
2021/01/06 02:21:10;;;;;;;7.60;4.22;;;;;;;21.79;44.34;94922.66;5030142;28;20029;-76
2021/01/06 02:23:36;;;;;;;7.47;4.70;;;;;;;21.78;44.68;94921.16;5029079;28;20044;-76
2021/01/06 02:26:01;;;;;;;7.20;4.07;;;;;;;21.92;44.57;94931.03;5029946;28;20029;-75
2021/01/06 02:28:27;;;;;;;6.88;4.70;;;;;;;21.91;44.42;94934.97;5029832;28;20024;-75
2021/01/06 02:30:52;;;;;;;7.43;4.82;;;;;;;21.91;44.52;94918.66;5011862;28;20490;-75
2021/01/06 02:33:18;;;;;;;6.97;5.00;;;;;;;21.90;44.46;94919.88;5028708;28;20021;-76
2021/01/06 02:35:43;;;;;;;7.15;4.80;;;;;;;21.89;44.57;94921.88;5030947;28;20021;-75
2021/01/06 02:38:09;;;;;;;7.88;4.55;;;;;;;21.74;44.42;94896.25;5029840;28;20033;-76
2021/01/06 02:40:34;;;;;;;7.22;4.55;;;;;;;21.87;44.54;94918.16;5013303;28;20017;-76
2021/01/06 02:43:00;;;;;;;7.35;4.85;;;;;;;21.87;44.59;94940.69;5030494;28;20026;-75
2021/01/06 02:45:25;;;;;;;7.55;4.90;;;;;;;21.70;44.50;94904.69;5029519;28;20506;-75
2021/01/06 02:47:51;;;;;;;6.55;4.15;;;;;;;21.75;44.30;94905.88;5013127;28;20029;-75
2021/01/06 02:50:19;;;;;;;7.30;4.60;;;;;;;21.86;44.29;94927.59;5029622;28;20022;-75
2021/01/06 02:53:01;;;;;;;6.50;4.10;;;;;;;21.84;44.51;94909.06;5013074;28;20032;-76
2021/01/06 02:55:27;;;;;;;7.18;4.60;;;;;;;21.74;44.54;94893.53;5028950;28;20033;-75
2021/01/06 02:57:53;;;;;;;7.32;4.60;;;;;;;21.79;44.15;94912.53;5029792;28;20033;-75
2021/01/06 03:00:20;;;;;;;7.32;4.45;;;;;;;21.84;44.47;94892.75;5029399;28;20030;-76
2021/01/06 03:02:46;;;;;;;7.70;4.60;;;;;;;21.83;44.43;94909.56;5030783;28;20170;-76
2021/01/06 03:05:12;;;;;;;7.32;4.40;;;;;;;21.82;44.17;94906.09;5024986;28;20494;-76
2021/01/06 03:07:37;;;;;;;8.43;5.38;;;;;;;21.65;44.21;94874.81;5010959;28;20026;-76
2021/01/06 03:10:03;;;;;;;6.90;4.80;;;;;;;21.82;44.36;94916.22;5009529;28;20022;-76
2021/01/06 03:12:30;;;;;;;7.10;4.85;;;;;;;21.74;44.40;94898.97;5011284;28;20387;-75
2021/01/06 03:14:56;;;;;;;5.65;4.40;;;;;;;21.73;44.41;94887.34;5010252;28;20030;-75
2021/01/06 03:17:21;;;;;;;6.57;4.50;;;;;;;21.73;44.35;94889.34;5011458;28;20036;-74
2021/01/06 03:19:49;;;;;;;8.30;4.80;;;;;;;21.78;44.61;94885.84;5011281;28;20017;-74
2021/01/06 03:22:16;;;;;;;6.18;4.15;;;;;;;21.77;44.47;94892.53;4994457;28;20029;-75
2021/01/06 03:24:44;;;;;;;7.28;5.25;;;;;;;21.69;44.33;94880.72;5009939;28;20610;-75
2021/01/06 03:27:10;;;;;;;6.82;4.78;;;;;;;21.61;44.42;94864.19;5008628;28;20049;-75
2021/01/06 03:29:35;;;;;;;7.40;5.25;;;;;;;21.76;44.37;94885.63;5009485;28;20030;-75
2021/01/06 03:32:03;;;;;;;7.22;4.75;;;;;;;21.76;44.38;94880.19;5009314;28;20034;-75
2021/01/06 03:34:47;;;;;;;7.22;5.07;;;;;;;21.73;44.39;94909.09;5010576;28;20175;-74
2021/01/06 03:37:19;;;;;;;7.30;5.07;;;;;;;21.71;44.52;94889.84;4993298;28;20033;-75
2021/01/06 03:39:57;;;;;;;6.28;4.68;;;;;;;21.73;44.40;94881.19;4993445;28;20040;-75
2021/01/06 03:42:23;;;;;;;6.85;4.75;;;;;;;21.71;44.60;94900.69;4994414;28;20153;-75
2021/01/06 03:44:48;;;;;;;7.03;4.78;;;;;;;21.69;44.62;94897.75;4994652;28;20037;-75
2021/01/06 03:47:18;;;;;;;7.05;4.72;;;;;;;21.72;44.34;94902.19;5012992;28;20034;-75
2021/01/06 03:50:02;;;;;;;6.78;4.93;;;;;;;21.74;44.34;94904.41;5014020;28;20523;-75
2021/01/06 03:52:48;;;;;;;6.30;4.50;;;;;;;21.79;44.41;94895.47;5013187;28;20044;-75
2021/01/06 03:55:35;;;;;;;6.38;4.30;;;;;;;21.83;44.34;94901.41;5013115;28;20034;-74
2021/01/06 03:58:01;;;;;;;7.95;4.50;;;;;;;21.79;44.05;94903.63;5013923;28;20077;-75
2021/01/06 04:00:39;;;;;;;7.03;4.68;;;;;;;21.91;44.36;94908.50;5012548;28;20037;-75
2021/01/06 04:03:09;;;;;;;6.55;4.47;;;;;;;21.94;44.04;94902.06;5013287;28;20061;-75
2021/01/06 04:05:35;;;;;;;7.57;4.13;;;;;;;21.90;43.96;94911.72;4996276;28;20034;-75
2021/01/06 04:08:01;;;;;;;7.07;4.05;;;;;;;21.91;43.97;94891.47;5011805;28;20045;-75
2021/01/06 04:10:36;;;;;;;6.10;4.28;;;;;;;22.09;44.02;94911.41;4996376;28;20026;-74
2021/01/06 04:13:02;;;;;;;6.57;4.30;;;;;;;22.02;43.91;94897.59;4995896;28;20029;-75
2021/01/06 04:15:27;;;;;;;6.68;4.38;;;;;;;22.17;43.70;94923.22;5013405;28;20057;-76
2021/01/06 04:17:54;;;;;;;6.82;4.50;;;;;;;22.05;43.57;94907.47;5011470;28;20083;-75
2021/01/06 04:20:31;;;;;;;6.53;4.25;;;;;;;22.06;43.52;94898.81;5016072;28;20035;-74
2021/01/06 04:22:59;;;;;;;6.93;4.18;;;;;;;22.27;43.55;94940.75;5016501;28;20029;-75
2021/01/06 04:25:35;;;;;;;6.65;4.88;;;;;;;22.17;43.57;94920.50;5048001;28;20026;-75
2021/01/06 04:28:08;;;;;;;5.95;4.18;;;;;;;22.33;43.27;94933.31;5031429;28;20556;-75
2021/01/06 04:30:35;;;;;;;6.40;4.40;;;;;;;22.36;43.22;94948.63;5031608;28;20769;-75
2021/01/06 04:33:01;;;;;;;6.85;4.22;;;;;;;22.36;43.31;94948.63;5032901;28;20174;-75
2021/01/06 04:35:27;;;;;;;6.72;4.30;;;;;;;22.40;43.41;94953.78;5032234;28;20025;-75
2021/01/06 04:37:53;;;;;;;7.90;4.85;;;;;;;22.29;43.44;94927.38;5032584;28;20022;-75
2021/01/06 04:40:22;;;;;;;6.28;4.32;;;;;;;22.19;43.34;94901.69;5015164;28;20167;-75
2021/01/06 04:42:48;;;;;;;5.97;3.87;;;;;;;22.31;43.02;94930.31;5015140;28;20552;-75
2021/01/06 04:45:25;;;;;;;6.50;4.20;;;;;;;22.46;43.06;94952.50;5014800;28;20037;-75
2021/01/06 04:48:30;;;;;;;6.40;4.18;;;;;;;22.49;43.35;94946.03;5031406;28;20045;-75
2021/01/06 04:51:25;;;;;;;6.60;4.07;;;;;;;22.52;43.09;94931.44;5046050;28;20087;-75
2021/01/06 04:54:18;;;;;;;6.25;4.05;;;;;;;22.53;42.84;94935.63;5031782;28;20164;-75
2021/01/06 04:57:11;;;;;;;6.97;4.25;;;;;;;22.53;42.97;94919.31;5022693;28;20037;-75
2021/01/06 04:59:54;;;;;;;7.28;4.47;;;;;;;22.55;43.12;94933.13;5013664;28;20026;-75
2021/01/06 05:02:33;;;;;;;7.47;4.80;;;;;;;22.58;43.02;94915.78;5010541;28;20022;-74
2021/01/06 05:05:27;;;;;;;6.10;4.55;;;;;;;22.60;42.97;94935.06;5012743;28;20038;-74
2021/01/06 05:08:02;;;;;;;6.63;4.30;;;;;;;22.62;42.94;94938.78;5010656;28;20029;-75
2021/01/06 05:10:29;;;;;;;6.20;4.28;;;;;;;22.63;42.82;94923.94;5012129;28;20029;-74
2021/01/06 05:13:26;;;;;;;7.45;4.28;;;;;;;22.64;42.66;94930.09;5011269;28;20113;-74
2021/01/06 05:16:00;;;;;;;6.97;4.45;;;;;;;22.65;42.62;94926.16;5009139;28;20060;-74
2021/01/06 05:18:26;;;;;;;6.55;4.20;;;;;;;22.65;42.49;94901.66;4995409;28;20407;-74
2021/01/06 05:20:52;;;;;;;7.13;4.22;;;;;;;22.66;42.69;94917.47;5012246;28;20120;-74
2021/01/06 05:23:28;;;;;;;5.70;4.00;;;;;;;22.68;42.64;94925.13;5011875;28;20033;-74
2021/01/06 05:25:54;;;;;;;6.20;4.35;;;;;;;22.55;42.30;94895.03;5011721;28;20506;-75
2021/01/06 05:28:21;;;;;;;6.43;4.47;;;;;;;22.67;42.69;94929.81;4995082;28;20022;-75
2021/01/06 05:30:50;;;;;;;7.57;4.25;;;;;;;22.57;42.28;94897.97;5011989;28;20041;-74
2021/01/06 05:33:19;;;;;;;6.77;4.37;;;;;;;22.73;42.65;94924.34;5008532;28;20414;-75
2021/01/06 05:35:46;;;;;;;7.57;4.50;;;;;;;22.69;42.50;94921.16;5011005;28;20030;-75
2021/01/06 05:38:11;;;;;;;6.32;4.20;;;;;;;22.62;42.17;94917.00;5009375;28;20030;-74
2021/01/06 05:40:38;;;;;;;7.18;5.00;;;;;;;22.73;42.58;94927.06;5010630;28;20045;-75
2021/01/06 05:43:18;;;;;;;7.35;4.78;;;;;;;22.74;42.61;94947.63;5010379;28;20026;-75
2021/01/06 05:45:52;;;;;;;6.25;4.50;;;;;;;22.76;42.52;94947.84;5010301;28;20821;-75
2021/01/06 05:48:22;;;;;;;5.72;4.05;;;;;;;22.74;42.13;94955.78;4993182;28;20419;-73
2021/01/06 05:51:02;;;;;;;;;;;;;;;22.79;42.10;94952.28;4993627;28;20811;-75
2021/01/06 05:53:54;;;;;;;6.95;4.50;;;;;;;22.81;42.29;94957.94;5010955;28;19974;-76
2021/01/06 05:56:25;;;;;;;6.82;4.63;;;;;;;22.83;42.32;94952.75;5011432;28;20037;-74
2021/01/06 05:58:59;;;;;;;6.55;4.38;;;;;;;22.83;42.12;94952.75;5012093;28;20040;-74
2021/01/06 06:01:46;;;;;;;6.68;4.32;;;;;;;22.88;41.81;94927.44;5029253;28;20029;-72
2021/01/06 06:04:39;;;;;;;6.85;4.85;;;;;;;22.89;42.00;94954.91;5022863;28;20036;-75
2021/01/06 06:07:19;;;;;;;6.45;4.65;;;;;;;22.91;41.93;94966.03;5027779;28;20454;-72
2021/01/06 06:09:48;;;;;;;;;;;;;;;22.93;41.97;94952.69;5028785;28;20090;-70
2021/01/06 06:12:35;;;;;;;6.70;4.78;;;;;;;22.95;42.18;94976.69;5026942;28;19936;-70
2021/01/06 06:15:23;;;;;;;7.40;5.07;;;;;;;22.99;42.19;94947.91;5020786;28;20036;-71
2021/01/06 06:18:09;;;;;;;7.18;4.90;;;;;;;23.03;41.81;94962.00;4982133;28;20036;-72
2021/01/06 06:20:56;;;;;;;7.00;4.78;;;;;;;23.12;41.91;94961.69;5023089;28;20116;-70
2021/01/06 06:23:49;;;;;;;6.75;4.38;;;;;;;23.20;41.79;94959.88;5024833;28;20020;-70
2021/01/06 06:26:52;;;;;;;7.10;4.40;;;;;;;23.30;41.30;94980.06;5022641;28;20495;-70
2021/01/06 06:29:19;;;;;;;7.75;4.63;;;;;;;23.39;41.51;94938.88;5025028;28;20099;-70
2021/01/06 06:32:03;;;;;;;6.80;4.63;;;;;;;23.48;41.46;94980.16;5028271;28;20029;-70
2021/01/06 06:34:35;;;;;;;7.82;4.60;;;;;;;23.43;40.81;94928.44;5010825;28;20071;-70
2021/01/06 06:37:10;;;;;;;7.43;4.60;;;;;;;23.70;40.53;94958.16;5010691;28;20025;-69
2021/01/06 06:39:40;;;;;;;7.85;4.65;;;;;;;23.84;40.55;94972.63;5028258;28;20079;-73
2021/01/06 06:42:28;;;;;;;7.95;4.25;;;;;;;23.97;40.02;94981.63;5027298;28;20033;-74
2021/01/06 06:45:01;;;;;;;6.90;4.80;;;;;;;24.05;40.20;94991.47;5028714;28;20473;-78
2021/01/06 06:47:43;;;;;;;6.70;4.45;;;;;;;24.20;40.13;94971.94;5017133;28;20392;-71
2021/01/06 06:50:30;;;;;;;5.88;4.40;;;;;;;24.26;40.06;94970.63;5023455;28;20037;-80
2021/01/06 06:53:15;;;;;;;7.93;4.75;;;;;;;24.38;39.65;94993.81;5021900;28;20503;-75
2021/01/06 06:56:19;;;;;;;6.25;4.43;;;;;;;24.52;39.48;94998.81;5011032;28;20038;-76
2021/01/06 06:59:11;;;;;;;8.35;4.63;;;;;;;24.48;39.14;94949.25;5011049;28;20105;-75
2021/01/06 07:01:40;;;;;;;6.88;4.30;;;;;;;24.74;39.09;94997.78;5006252;28;20184;-75
2021/01/06 07:04:27;;;;;;;7.97;5.00;;;;;;;24.82;38.50;94987.75;5023543;28;20022;-74
2021/01/06 07:06:57;;;;;;;6.20;4.15;;;;;;;24.74;38.58;94937.69;5033498;28;20025;-74
2021/01/06 07:09:28;;;;;;;6.63;4.57;;;;;;;24.97;38.10;94994.94;5023696;28;20495;-74
2021/01/06 07:11:59;;;;;;;7.68;4.50;;;;;;;24.93;38.08;94967.19;5016243;28;20026;-74
2021/01/06 07:14:28;;;;;;;6.82;4.47;;;;;;;25.13;38.11;94996.72;5024716;28;20037;-71
2021/01/06 07:17:07;;;;;;;7.53;4.82;;;;;;;25.13;37.87;94991.25;5024508;28;20103;-70
2021/01/06 07:19:57;;;;;;;5.80;4.20;;;;;;;25.27;37.83;94989.28;5022237;28;20044;-70
2021/01/06 07:22:30;;;;;;;;;;;;;;;25.28;37.95;94988.03;5031329;28;20052;-70
2021/01/06 07:25:26;;;;;;;6.80;4.20;;;;;;;25.29;37.72;95009.38;5016026;28;19912;-74
2021/01/06 07:27:56;;;;;;;8.57;4.13;;;;;;;25.43;37.26;94991.75;5030499;28;20041;-74
2021/01/06 07:30:35;;;;;;;7.10;4.53;;;;;;;25.50;37.31;94997.34;5030645;28;20417;-73
2021/01/06 07:33:26;;;;;;;7.20;4.50;;;;;;;25.55;37.54;94987.56;5019109;28;20029;-76
2021/01/06 07:36:03;;;;;;;10.85;4.55;;;;;;;25.59;37.15;95016.06;5020343;28;20022;-77
2021/01/06 07:38:28;;;;;;;7.28;4.65;;;;;;;25.64;36.96;95011.75;5027700;28;20040;-76
2021/01/06 07:40:57;;;;;;;6.35;4.30;;;;;;;25.70;37.06;95020.63;5030439;28;20029;-74
2021/01/06 07:43:25;;;;;;;9.05;4.85;;;;;;;25.73;36.85;95019.59;5016708;28;20022;-74
2021/01/06 07:46:23;;;;;;;8.18;4.53;;;;;;;25.77;36.83;95020.00;5044885;28;20033;-74
2021/01/06 07:49:16;;;;;;;7.65;4.85;;;;;;;25.63;36.76;95008.28;5043511;28;20033;-74
2021/01/06 07:52:11;;;;;;;7.22;4.78;;;;;;;25.84;37.07;95031.06;5023848;28;20095;-74
2021/01/06 07:54:39;;;;;;;6.68;4.80;;;;;;;25.90;37.50;95012.53;5027161;28;20048;-75
2021/01/06 07:57:44;;;;;;;6.35;4.70;;;;;;;25.93;37.11;95025.94;5030145;28;20064;-74
2021/01/06 08:00:11;;;;;;;6.97;4.72;;;;;;;25.93;37.32;95039.59;5018408;28;20407;-74
2021/01/06 08:02:41;;;;;;;8.30;4.75;;;;;;;25.74;37.18;94999.16;5014033;28;20025;-75
2021/01/06 08:05:06;;;;;;;6.30;4.55;;;;;;;26.05;37.55;95029.94;5027569;28;20026;-75
2021/01/06 08:07:32;;;;;;;6.93;4.65;;;;;;;26.11;37.14;95038.00;5030653;28;20021;-75
2021/01/06 08:09:58;;;;;;;8.85;5.10;;;;;;;26.12;37.55;95010.13;5026802;28;20018;-76
2021/01/06 08:12:40;;;;;;;8.27;5.18;;;;;;;26.19;37.69;95039.59;5022050;28;20033;-75
2021/01/06 08:15:17;;;;;;;9.45;5.30;;;;;;;26.10;37.53;95015.41;5017891;28;20557;-76
2021/01/06 08:18:03;;;;;;;7.85;5.18;;;;;;;26.12;37.92;95007.38;5026397;28;20048;-75
2021/01/06 08:20:45;;;;;;;7.88;5.50;;;;;;;26.26;37.65;95047.16;5004134;28;20037;-72
2021/01/06 08:23:14;;;;;;;7.85;5.20;;;;;;;26.30;37.56;95044.88;5028657;28;20562;-70
2021/01/06 08:25:39;;;;;;;7.82;4.68;;;;;;;26.26;37.57;95044.44;5011372;28;20442;-72
2021/01/06 08:28:15;;;;;;;8.35;5.25;;;;;;;26.25;37.42;95006.63;5011649;28;20025;-72
2021/01/06 08:30:41;;;;;;;9.00;5.70;;;;;;;26.37;37.21;95055.22;5010573;28;20905;-73
2021/01/06 08:33:09;;;;;;;9.85;6.35;;;;;;;26.39;37.12;95058.16;5011385;28;20038;-72
2021/01/06 08:35:37;;;;;;;7.50;4.95;;;;;;;26.40;36.77;95037.72;5018468;28;20415;-72
2021/01/06 08:38:03;;;;;;;7.70;5.10;;;;;;;26.45;36.60;95031.38;5030535;28;20029;-72
2021/01/06 08:40:36;;;;;;;7.93;5.15;;;;;;;26.48;36.89;95049.50;5011277;28;20036;-71
2021/01/06 08:43:10;;;;;;;7.07;4.93;;;;;;;26.46;36.49;95035.63;5025437;28;20106;-73
2021/01/06 08:45:37;;;;;;;6.40;5.28;;;;;;;26.52;36.65;95060.88;5043503;28;20021;-70
2021/01/06 08:48:13;;;;;;;8.38;5.25;;;;;;;26.51;36.58;95045.72;5044508;28;20032;-70
2021/01/06 08:50:40;;;;;;;7.05;5.00;;;;;;;26.54;36.51;95030.97;5026311;28;20066;-72
2021/01/06 08:53:05;;;;;;;7.88;5.35;;;;;;;26.57;36.31;95057.28;5024915;28;20039;-70
2021/01/06 08:55:38;;;;;;;7.80;5.30;;;;;;;26.61;36.22;95044.75;5034642;28;20501;-74
2021/01/06 08:58:13;;;;;;;9.20;5.43;;;;;;;26.64;36.24;95012.81;5031244;28;20095;-71
2021/01/06 09:00:56;;;;;;;7.88;5.30;;;;;;;26.66;36.01;95065.06;5029176;28;20101;-75
2021/01/06 09:03:54;;;;;;;8.60;5.57;;;;;;;26.66;36.13;95015.75;5019770;28;20038;-78
2021/01/06 09:06:21;;;;;;;9.07;5.93;;;;;;;26.68;35.83;95032.41;5029316;28;20026;-80
2021/01/06 09:09:11;;;;;;;9.25;6.00;;;;;;;26.61;36.00;95046.75;5031885;28;20507;-77
2021/01/06 09:11:54;;;;;;;8.50;5.55;;;;;;;26.68;36.00;95035.13;5030521;28;20038;-77
2021/01/06 09:14:31;;;;;;;7.70;5.22;;;;;;;26.70;36.01;95051.81;5028749;28;20115;-73
2021/01/06 09:17:36;;;;;;;9.05;5.63;;;;;;;26.69;35.78;95036.63;5027020;28;20552;-75
2021/01/06 09:20:23;;;;;;;8.82;5.22;;;;;;;26.75;35.82;95001.63;5004365;28;20054;-74
2021/01/06 09:22:49;;;;;;;8.52;5.57;;;;;;;26.76;35.84;94999.06;5008034;28;20117;-75
2021/01/06 09:25:19;;;;;;;7.78;5.53;;;;;;;26.78;35.60;95037.63;5011697;28;20034;-74
2021/01/06 09:27:46;;;;;;;7.97;5.68;;;;;;;26.82;35.21;95005.16;5012680;28;20029;-74
2021/01/06 09:30:15;;;;;;;8.40;5.43;;;;;;;26.81;35.38;95000.94;5032242;28;20028;-74
2021/01/06 09:32:40;;;;;;;8.45;5.75;;;;;;;26.83;35.10;95009.38;5021325;28;20422;-74
2021/01/06 09:35:10;;;;;;;8.57;5.63;;;;;;;26.85;35.12;94984.91;5013708;28;20117;-75
2021/01/06 09:37:37;;;;;;;7.93;5.75;;;;;;;26.83;35.56;94992.94;5009526;28;20778;-75
2021/01/06 09:40:30;;;;;;;8.23;5.68;;;;;;;26.91;34.99;94998.53;5023050;28;20080;-76
2021/01/06 09:43:05;;;;;;;8.35;6.05;;;;;;;26.97;34.93;94997.13;5022825;28;20124;-75
2021/01/06 09:45:31;;;;;;;8.52;6.10;;;;;;;27.01;35.19;94992.06;5025237;28;20056;-76
2021/01/06 09:48:04;;;;;;;7.05;4.88;;;;;;;26.92;35.06;95000.75;5020322;28;20025;-74
2021/01/06 09:50:34;;;;;;;7.53;5.22;;;;;;;27.04;34.95;94985.50;5012234;28;20026;-74
2021/01/06 09:53:01;;;;;;;8.35;5.47;;;;;;;26.91;34.65;94917.03;5028428;28;20040;-74
2021/01/06 09:55:27;;;;;;;10.55;5.85;;;;;;;27.02;34.86;94943.44;5028358;28;20033;-75
2021/01/06 09:58:14;;;;;;;10.80;5.72;;;;;;;27.06;34.33;94963.78;5030054;28;20053;-76
2021/01/06 10:00:51;;;;;;;9.68;5.93;;;;;;;27.12;34.48;94947.94;5025695;28;20030;-74
2021/01/06 10:03:17;;;;;;;8.07;5.50;;;;;;;27.07;35.11;94946.06;5011898;28;20041;-74
2021/01/06 10:06:00;;;;;;;9.82;5.60;;;;;;;27.12;34.83;94939.69;5015405;28;20445;-72
2021/01/06 10:08:58;;;;;;;7.53;5.28;;;;;;;27.13;34.97;94916.50;5026852;28;20033;-74
2021/01/06 10:11:43;;;;;;;9.68;5.32;;;;;;;27.15;34.74;94930.41;5033825;28;20087;-74
2021/01/06 10:14:18;;;;;;;7.75;5.68;;;;;;;27.18;34.87;94929.34;5025789;28;20155;-74
2021/01/06 10:16:53;;;;;;;9.63;5.60;;;;;;;27.17;34.93;94944.31;5030769;28;20041;-74
2021/01/06 10:19:58;;;;;;;9.35;5.25;;;;;;;27.15;35.26;94941.38;5029105;28;20095;-75
2021/01/06 10:22:31;;;;;;;8.18;5.50;;;;;;;27.11;35.21;94893.63;5016768;28;20047;-72
2021/01/06 10:25:03;;;;;;;8.40;5.07;;;;;;;27.19;35.48;94947.28;5014809;28;20550;-71
2021/01/06 10:28:13;;;;;;;9.63;5.00;;;;;;;27.16;34.97;94931.88;5024749;28;20038;-77
2021/01/06 10:30:38;;;;;;;9.00;5.28;;;;;;;27.18;35.50;94903.94;5005065;28;20067;-71
2021/01/06 10:33:16;;;;;;;8.30;5.68;;;;;;;27.04;35.43;94925.19;5029829;28;20030;-74
2021/01/06 10:36:13;;;;;;;7.57;5.22;;;;;;;27.25;35.60;94928.66;5020503;28;20026;-73
2021/01/06 10:38:42;;;;;;;7.28;5.13;;;;;;;27.28;35.17;94908.41;5027783;28;20113;-73
2021/01/06 10:41:32;;;;;;;8.10;5.28;;;;;;;27.30;35.31;94903.09;5010121;28;20033;-71
2021/01/06 10:43:59;;;;;;;7.40;4.68;;;;;;;27.31;35.11;94888.13;5028625;28;20041;-73
2021/01/06 10:46:45;;;;;;;7.10;4.82;;;;;;;27.26;34.79;94902.69;5020797;28;20392;-72
2021/01/06 10:49:20;;;;;;;6.47;4.90;;;;;;;27.40;35.14;94885.63;5004309;28;20465;-73
2021/01/06 10:51:56;;;;;;;8.48;5.68;;;;;;;27.15;35.30;94858.41;5016178;28;20491;-73
2021/01/06 10:54:50;;;;;;;6.95;5.03;;;;;;;27.39;35.25;94872.44;5026507;28;20418;-73
2021/01/06 10:57:15;;;;;;;6.60;4.50;;;;;;;27.35;35.30;94861.84;5027934;28;20079;-75
2021/01/06 11:00:15;;;;;;;8.55;5.15;;;;;;;27.36;35.05;94849.56;5023496;28;20421;-76
2021/01/06 11:03:12;;;;;;;7.97;5.18;;;;;;;27.35;34.95;94850.09;5015745;28;20017;-74
2021/01/06 11:05:52;;;;;;;7.70;4.95;;;;;;;27.36;35.31;94835.13;5021934;28;20116;-74
2021/01/06 11:08:33;;;;;;;7.90;4.88;;;;;;;27.36;35.25;94854.31;5020629;28;20026;-79
2021/01/06 11:11:21;;;;;;;6.95;5.13;;;;;;;27.27;35.11;94838.38;5022370;28;20036;-82
2021/01/06 11:13:56;;;;;;;7.15;4.85;;;;;;;27.31;35.27;94822.31;5022324;28;20121;-73
2021/01/06 11:16:23;;;;;;;6.57;4.53;;;;;;;27.35;34.89;94834.41;5010390;28;20054;-73
2021/01/06 11:18:53;;;;;;;7.75;4.38;;;;;;;27.36;35.30;94829.66;5023487;28;20075;-71
2021/01/06 11:21:18;;;;;;;8.73;4.47;;;;;;;27.38;34.76;94832.56;5023771;28;20477;-72
2021/01/06 11:23:54;;;;;;;7.78;5.20;;;;;;;27.36;35.22;94818.69;5010299;28;20022;-74
2021/01/06 11:26:32;;;;;;;7.13;4.82;;;;;;;27.31;34.98;94812.06;5009397;28;20022;-74
2021/01/06 11:29:18;;;;;;;6.88;4.70;;;;;;;27.33;34.73;94814.28;5009910;28;20050;-76
2021/01/06 11:31:50;;;;;;;6.88;4.60;;;;;;;27.33;35.09;94811.53;5010536;28;20030;-78
2021/01/06 11:34:15;;;;;;;8.38;4.85;;;;;;;27.41;34.98;94815.03;5009815;28;20030;-75
2021/01/06 11:36:41;;;;;;;7.18;4.40;;;;;;;27.42;34.84;94822.72;5012474;28;20501;-76
2021/01/06 11:39:08;;;;;;;7.22;4.45;;;;;;;27.38;34.59;94811.38;5022094;28;20030;-75
2021/01/06 11:41:33;;;;;;;7.30;4.72;;;;;;;27.32;34.82;94796.34;5024570;28;20040;-76
2021/01/06 11:44:15;;;;;;;6.47;4.38;;;;;;;27.36;34.88;94791.97;5009512;28;20030;-76
2021/01/06 11:47:03;;;;;;;7.80;4.53;;;;;;;27.30;34.98;94787.94;5022634;28;20032;-73
2021/01/06 11:49:30;;;;;;;7.53;4.30;;;;;;;27.31;35.11;94794.88;5018179;28;20030;-78
2021/01/06 11:52:33;;;;;;;6.57;4.45;;;;;;;27.27;35.35;94810.94;5013680;28;20030;-72
2021/01/06 11:55:36;;;;;;;5.78;4.47;;;;;;;27.15;35.05;94815.25;5010667;28;20030;-76
2021/01/06 11:58:13;;;;;;;6.80;4.35;;;;;;;27.07;35.61;94811.72;5019087;28;20037;-76
2021/01/06 12:00:42;;;;;;;6.72;4.40;;;;;;;26.91;35.91;94790.97;5026762;28;20025;-76
2021/01/06 12:03:07;;;;;;;8.23;4.78;;;;;;;26.76;36.05;94800.34;5009875;28;20026;-76
2021/01/06 12:06:11;;;;;;;7.07;4.43;;;;;;;26.69;36.22;94795.53;5011361;28;20088;-76